Laszlo Nikolic

Recruteur en chef - Fehervar
4 Déc 2027
Samedi
Processus

Personnalité

Adaptabilité (20) Ambition (3) Controverse (11) Loyauté (16) Pression (2) Professionnalisme (14) Sportivité (2) Tempérament (15)

Profil

Style d'entraînement Démocratique
Diplôme National B
Détermination 10
Gestion des joueurs 12
Motivation 4
Discipline 4
Satisfaction professionnelle
100%
Fatigue
0%
Rôle Recruteur en chef
Salaire 14.8K p/s
Contrat 14.03.2029

Performance

Comportement Bon
Efficacité de l'entraînement
41%
Développement des joueurs
45%
Prévention des blessures
25%
Mise en place tactique
20%

Événements récents

A évalué un joueur maintenant
A évalué un joueur maintenant
A participé à une réunion de recrutement maintenant
A recommandé une cible de transfert maintenant
A recommandé une cible de transfert maintenant
A recommandé une cible de transfert maintenant
A évalué un joueur maintenant
A évalué un joueur maintenant

Suivi en cours

209
Joueur Club Statut Capacité Confiance Observé Dernière observation Dernier vote
Santiago Sala Güemes Actif 120 / 114 40% 8 03.12.2027 -
Rafael Arace Deportivo Tachira Actif 104 / 98 40% 6 03.12.2027 -
Fabricio Rojas Gimnasia y Tiro Actif 107 / 103 40% 4 03.12.2027 -
Facundo Castelli Estudiantes Actif 122 / 127 40% 9 02.12.2027 -
Luca Franco Arsenal Actif 117 / 100 40% 5 02.12.2027 -
Lucio Castillo Colegiales Actif 106 / 103 40% 4 02.12.2027 -
Liel Abada Charlotte Football Club Actif 149 / 126 40% 5 01.12.2027 -
Juan David Rueda Alianza Petrolera Actif 117 / 103 40% 6 01.12.2027 -
Juan Rocca Gimnasia y Tiro Actif 107 / 104 40% 4 01.12.2027 -
Agustín Hausch Caracas Actif 120 / 117 40% 11 01.12.2027 -
Johan Campaña Patriotas Actif 102 / 114 40% 2 01.12.2027 -
Francis Amuzu Grêmio Actif 126 / 127 40% 1 01.12.2027 -
Mauricio Márquez Caracas Actif 112 / 98 40% 6 29.11.2027 -
Augusto Berrondo Tristán Suárez Actif 106 / 118 40% 4 29.11.2027 -
Jonás Acevedo Instituto Actif 114 / 124 40% 4 29.11.2027 -
Facundo Altamira Godoy Cruz Actif 122 / 131 40% 2 29.11.2027 -
Brian Guerra Chaco For Ever Actif 106 / 109 40% 2 29.11.2027 -
Lautaro Gordillo Colegiales Actif 103 / 119 40% 4 25.11.2027 -
Tiziano Dornell Almagro Actif 107 / 124 40% 6 25.11.2027 -
Antonio Galeano Remo Stars Actif 121 / 136 40% 6 25.11.2027 -
Breel Embolo Atlanta United FC Actif 147 / 139 40% 2 25.11.2027 -
Marco Miori Alvarado Actif 114 / 109 40% 8 24.11.2027 -
Kelvin Flórez Junior Actif 107 / 117 40% 3 24.11.2027 -
Jhonatan Candia Barracas Central Actif 130 / 128 40% 1 24.11.2027 -
Cristian Arango San Jose Earthquakes Actif 139 / 138 40% 8 23.11.2027 -
Lucas Ríos Atlanta Actif 122 / 120 40% 6 22.11.2027 -
Marcos Camarda Santiago Wanderers Actif 117 / 104 40% 5 22.11.2027 -
Martín Álvarez Tristán Suárez Actif 115 / 113 40% 2 22.11.2027 -
Rodrigo Pollero Deportivo Tachira Actif 97 / 99 40% 4 19.11.2027 -
Sunday Megwo Abia Warriors Actif 94 / 107 40% 3 18.11.2027 -
Nicolás Fernández Belgrano Actif 127 / 135 40% 4 18.11.2027 -
Marcelo Torres Gimnasia La Plata Actif 114 / 110 40% 5 18.11.2027 -
Eric Ramírez Carabobo Actif 120 / 106 40% 3 15.11.2027 -
Maclyn Biokpo Jenewari Rivers United Actif 100 / 103 40% 6 12.11.2027 -
Franco Vedoya Central Norte Actif 107 / 108 40% 1 12.11.2027 -
Nicolás Cordero Aldosivi Actif 112 / 120 40% 1 12.11.2027 -
Jonatan Torres Cerro Porteno Actif 114 / 116 40% 4 11.11.2027 -
Tomás Fernández Aldosivi Actif 113 / 126 40% 1 08.11.2027 -
Jhon Murillo America de Cali Actif 116 / 114 40% 3 07.11.2027 -
Carlos Caicedo La Equidad Actif 117 / 121 40% 1 06.11.2027 -
Alan Bonansea Colón Actif 110 / 119 40% 1 06.11.2027 -
Juan Mendoza Güemes Actif 97 / 93 40% 1 06.11.2027 -
Oscar Osorio Atletico Venezuela Actif 100 / 117 40% 4 05.11.2027 -
Tomás Chancalay Minnesota United FC Actif 139 / 136 40% 5 03.11.2027 -
Juan Cruz Zurbriggen San Telmo Actif 112 / 100 40% 1 03.11.2027 -
Axel Batista Quilmes Actif 112 / 113 40% 2 02.11.2027 -
Erickson Gallardo Zamora Actif 123 / 114 40% 1 02.11.2027 -
Bruno Barticciotto Talleres Actif 123 / 117 40% 3 31.10.2027 -
Enzo González Defensores Actif 119 / 104 40% 6 31.10.2027 -
Jeriel De Santis Caracas Actif 120 / 96 40% 3 29.10.2027 -
Luca Martínez Dupuy Godoy Cruz Actif 123 / 125 40% 8 28.10.2027 -
Santiago Apa All Boys Actif 109 / 105 40% 2 27.10.2027 -
Favio Cabral Mitre Actif 130 / 117 40% 1 26.10.2027 -
Jonathan Cañete Portuguesa Actif 117 / 108 40% 5 24.10.2027 -
Iñaki Larthirigoyen San Telmo Actif 120 / 127 40% 2 22.10.2027 -
Carlos Gugenheim Almirante Brown Actif 117 / 121 40% 3 19.10.2027 -
Santiago Martínez Godoy Cruz Actif 118 / 120 40% 1 17.10.2027 -
Alexander Díaz Deportivo Riestra Actif 129 / 116 40% 1 17.10.2027 -
Gianluca Pugliese Güemes Actif 116 / 117 40% 2 15.10.2027 -
Elías Contreras Morón Actif 118 / 104 40% 1 14.10.2027 -
Adalberto Peñaranda Deportivo Tachira Actif 129 / 115 40% 2 11.10.2027 -
José Balza Deportivo Tachira Actif 117 / 108 40% 2 09.10.2027 -
Junior Paredes Trujillanos Actif 108 / 98 40% 1 06.10.2027 -
Ljupce Doriev Sogdiana Actif 107 / 111 40% 1 29.09.2027 -
Franco Fagúndez Estudiantes Actif 110 / 125 40% 1 27.09.2027 -
Lisandro Cabrera Maipú Actif 124 / 107 40% 2 21.09.2027 -
Thiago Calone All Boys Actif 115 / 112 40% 1 20.09.2027 -
Federico Girotti Alianza Lima Actif 114 / 124 40% 1 16.09.2027 -
Nicolás Sosa Racing Actif 113 / 109 40% 1 12.09.2027 -
Timothy Zechariah Rivers United Actif 89 / 98 40% 1 04.09.2027 -
Franco Ayunta Temperley Actif 114 / 122 40% 1 02.09.2027 -
Agustín Lavezzi Quilmes Actif 99 / 116 40% 1 01.09.2027 -
Dávid Bobál Honved Actif 105 / 96 69% 1 23.08.2027 Approuver
Samuel Tetteh Ashanti Gold Actif 105 / 109 40% 1 23.08.2027 -
Augusto Berrondo Tristán Suárez Perdu 111 / 103 40% 1 23.08.2027 -
Maclyn Biokpo Jenewari Rivers United Perdu 94 / 113 40% 1 16.08.2027 -
Ettore Gliozzi Mantova Actif 116 / 116 40% 1 16.08.2027 -
Luca Moro Padova Actif 118 / 122 40% 1 16.08.2027 -
Daniel Udoh Salford City Actif 112 / 109 40% 1 09.08.2027 -
Bradley Fink Wycombe Wanderers Actif 114 / 118 40% 1 09.08.2027 -
Marcus Browne AFC Wimbledon Actif 118 / 109 40% 1 09.08.2027 -
Christian Saydee Wigan Athletic Actif 118 / 112 40% 1 08.08.2027 -
Ross Stewart Southampton Actif 133 / 125 40% 1 08.08.2027 -
Mees Rijks Bristol Rovers Actif 119 / 121 40% 1 08.08.2027 -
Ryoya Morishita Blackburn Rovers Actif 134 / 129 40% 2 03.08.2027 -
Shayne Lavery Cambridge United Actif 110 / 113 40% 2 03.08.2027 -
Mark Sykes Millwall Actif 128 / 127 40% 1 03.08.2027 -
Márk Kosznovszky Portsmouth Actif 117 / 116 40% 6 26.07.2027 -
Marcus McGuane Huddersfield Town Actif 129 / 121 40% 1 26.07.2027 -
Ronan Hale Gillingham Perdu 113 / 108 40% 1 26.07.2027 -
Benjámin Cseke Vasas Actif 98 / 105 69% 1 12.07.2027 Approuver
Szilárd Rostás Trakai Actif 66 / 81 40% 1 15.06.2027 -
Jonathan De Irastorza Levante Actif 129 / 127 40% 1 15.06.2027 -
Jacob Wright Norwich City Actif 116 / 124 40% 1 15.06.2027 -
Zoltan Bese Haladas Actif 104 / 127 69% 1 06.06.2027 Approuver
Josh Coburn Millwall Perdu 126 / 126 40% 1 06.06.2027 -
Jovon Makama Norwich City Actif 123 / 120 40% 1 31.05.2027 -
Gorka Gorosabel Real Sociedad Actif 112 / 112 40% 1 31.05.2027 -
Zeidane Inoussa Swansea City Actif 126 / 121 40% 4 30.05.2027 -
Terry Devlin Portsmouth Actif 126 / 124 40% 1 30.05.2027 -
Tyrese Campbell Sheffield United Actif 134 / 125 40% 3 28.05.2027 -
Cian Ashford Cardiff City Actif 116 / 117 40% 5 28.05.2027 -
Daniel Kyerewaa Reading Actif 118 / 111 40% 1 28.05.2027 -
Isaiah Jones Luton Town Actif 122 / 126 40% 7 25.05.2027 -
Todd Cantwell Blackburn Rovers Actif 127 / 133 40% 6 25.05.2027 -
Ilias Chair Queens Park Rangers Actif 132 / 123 40% 3 25.05.2027 -
Karlan Grant West Bromwich Albion Actif 123 / 120 40% 4 24.05.2027 -
Joe Aribo Southampton Actif 127 / 119 40% 3 24.05.2027 -
Dale Taylor Blackpool Actif 112 / 118 40% 1 24.05.2027 -
Paddy Lane Reading Actif 118 / 111 40% 3 23.05.2027 -
Stephy Mavididi Leicester City Actif 123 / 122 40% 2 23.05.2027 -
Mikey Johnston West Bromwich Albion Actif 128 / 125 40% 1 23.05.2027 -
Tim Iroegbunam Hull City Actif 135 / 135 40% 1 22.05.2027 -
Lamine Cissé Peterborough United Actif 120 / 121 40% 2 20.05.2027 -
Xavier Amaechi Plymouth Argyle Actif 104 / 104 40% 1 20.05.2027 -
Melker Widell Swansea City Actif 123 / 128 40% 1 20.05.2027 -
Relebohile Mofokeng Orlando Pirates Actif 124 / 117 40% 8 18.05.2027 -
Marc Bola Watford Actif 117 / 122 40% 4 18.05.2027 -
Demarai Gray Birmingham Actif 138 / 129 40% 5 17.05.2027 -
Paris Maghoma Norwich City Actif 126 / 119 40% 2 17.05.2027 -
Lewis O'Brien Wrexham Actif 127 / 122 40% 1 16.05.2027 -
Helinho Toluca Perdu 139 / 132 40% 2 15.05.2027 -
Mihailo Ivanović Millwall Actif 129 / 124 40% 4 13.05.2027 -
Tony Springett Barnet Actif 107 / 101 40% 2 12.05.2027 -
Harry Clarke Preston Actif 125 / 134 40% 2 12.05.2027 -
Fraser Murray Wigan Athletic Actif 123 / 109 40% 2 09.05.2027 -
Saša Lukić Ipswich Town Actif 145 / 136 40% 2 09.05.2027 -
Alessio Zerbin Frosinone Actif 130 / 133 40% 4 05.05.2027 -
Oladapo Afolayan Blackburn Rovers Actif 127 / 124 40% 2 05.05.2027 -
Romano Schmid Frosinone Actif 151 / 147 40% 2 30.04.2027 -
Finn Azaz Southampton Actif 131 / 133 40% 4 29.04.2027 -
Mathías Olivera Cesena Actif 143 / 147 40% 1 29.04.2027 -
Luke McNally Bristol City Actif 131 / 124 40% 1 29.04.2027 -
Tom Hamer Lincoln City Actif 111 / 118 40% 1 29.04.2027 -
Kenny Tete Fulham Actif 144 / 143 40% 4 28.04.2027 -
Million Manhoef Stoke City Actif 128 / 124 40% 1 27.04.2027 -
Andrei Coubiş Lincoln City Actif 107 / 115 40% 1 26.04.2027 -
Paik Seung-Ho Birmingham Actif 132 / 123 40% 1 26.04.2027 -
Bosun Lawal Stoke City Actif 122 / 135 40% 1 26.04.2027 -
Ramón Terrats Getafe Actif 138 / 144 40% 7 24.04.2027 -
Welington Southampton Actif 138 / 124 40% 2 24.04.2027 -
Ronald Swansea City Actif 132 / 131 40% 4 21.04.2027 -
Aaron Collins Milton Keynes Dons Actif 115 / 116 40% 2 21.04.2027 -
Myles Peart-Harris Oxford United Actif 122 / 115 40% 1 21.04.2027 -
Ryan Hedges Derby County Actif 118 / 117 40% 4 19.04.2027 -
Mduduzi Shabalala Kaizer Chiefs Actif 111 / 117 40% 4 18.04.2027 -
Koki Saito Queens Park Rangers Actif 125 / 124 40% 3 17.04.2027 -
Jeon Jin-Woo Sheffield Wednesday Actif 127 / 134 40% 4 15.04.2027 -
Jack McGlynn Stoke City Actif 136 / 126 40% 1 11.04.2027 -
Adam Randell Bristol City Actif 122 / 127 40% 1 11.04.2027 -
Daniel Harvie Wycombe Wanderers Actif 107 / 116 40% 1 11.04.2027 -
Max Bird Birmingham Actif 134 / 134 40% 3 09.04.2027 -
Isaac Price West Bromwich Albion Actif 121 / 127 40% 2 08.04.2027 -
Brooke Norton-Cuffy Hull City Actif 129 / 138 40% 3 07.04.2027 -
Max Johnston Derby County Actif 125 / 134 40% 3 03.04.2027 -
Rumarn Burrell Queens Park Rangers Actif 123 / 117 40% 2 03.04.2027 -
Nduduzo Sibiya Golden Arrows Actif 121 / 107 40% 3 02.04.2027 -
Tshepang Moremi Orlando Pirates Actif 112 / 118 40% 4 01.04.2027 -
Kasey McAteer Ipswich Town Actif 130 / 124 40% 1 01.04.2027 -
Ollie Tanner Cardiff City Actif 124 / 111 40% 1 31.03.2027 -
Tommy Conway Middlesbrough Actif 136 / 134 40% 1 29.03.2027 -
Tomáš Rigo Stoke City Actif 127 / 133 40% 1 25.03.2027 -
Tariq Lamptey Queens Park Rangers Actif 143 / 132 40% 1 21.03.2027 -
Iqraam Rayners Mamelodi Sundowns Actif 125 / 128 40% 1 20.03.2027 -
Tatsuhiro Sakamoto Coventry City Actif 126 / 122 40% 1 18.03.2027 -
Ao Tanaka Leeds United Actif 147 / 142 40% 1 12.03.2027 -
Jacques Ekomié Wrexham Actif 128 / 135 40% 1 11.03.2027 -
Patrick Maswanganyi Orlando Pirates Actif 115 / 122 40% 3 07.03.2027 -
Lebohang Maboe Kaizer Chiefs Actif 122 / 103 40% 2 07.03.2027 -
Brian Figueroa Morelia Actif 98 / 103 40% 2 06.03.2027 -
Jordan Lotomba Bloemfontein Celtic Actif 127 / 119 40% 1 05.03.2027 -
Thulani Mabaso Chippa United Actif 100 / 107 40% 1 05.03.2027 -
Wandile Duba Maritzburg United Actif 93 / 115 40% 2 04.03.2027 -
Naïs Djouahra Arouca Actif 133 / 130 40% 2 04.03.2027 -
Mattéo Tramoni Pisa Actif 126 / 135 40% 1 03.03.2027 -
Haashim Domingo Maritzburg United Actif 102 / 115 40% 1 03.03.2027 -
Álex Valle Como Actif 138 / 141 40% 2 02.03.2027 -
Oussama Idrissi Ferencvaros Actif 143 / 134 40% 3 01.03.2027 -
Jonathan Levi Ferencvaros Actif 124 / 118 40% 4 01.03.2027 -
Ali Youssef Apollon Actif 125 / 124 40% 2 26.02.2027 -
Kyle Jurgens Maritzburg United Actif 107 / 119 40% 1 26.02.2027 -
Mariano Gómez Ferencvaros Actif 115 / 116 40% 1 26.02.2027 -
Sérgio Conceição AEL Actif 130 / 114 40% 1 26.02.2027 -
Giorgi Kvernadze Frosinone Actif 118 / 120 40% 1 24.02.2027 -
Camilo Durán Bloemfontein Celtic Actif 133 / 130 40% 4 23.02.2027 -
Marquinhos APOEL Actif 132 / 126 40% 2 22.02.2027 -
Iuri Medeiros Ujpest Actif 130 / 128 40% 1 22.02.2027 -
Aljoša Matko Ujpest Actif 112 / 117 40% 1 20.02.2027 -
Veljko Birmančević Ferencvaros Actif 129 / 132 40% 3 19.02.2027 -
Bjorn Meijer Sampdoria Actif 130 / 132 40% 1 19.02.2027 -
Khuliso Mudau Mamelodi Sundowns Actif 134 / 136 40% 1 19.02.2027 -
Ognjen Bjeličić Hamrun Spartans Actif 99 / 107 40% 1 17.02.2027 -
Sipho Mbule SuperSport United Actif 105 / 105 40% 1 14.02.2027 -
Simon Ramabu Polokwane City Actif 100 / 106 40% 1 14.02.2027 -
Bernard Tekpetey Ludogorets Actif 122 / 120 40% 1 12.02.2027 -
Thalente Mbatha Orlando Pirates Actif 119 / 114 40% 1 12.02.2027 -
Stipe Radić MTK Budapest Actif 106 / 115 40% 1 12.02.2027 -
Ádin Molnár MTK Budapest Actif 105 / 120 40% 2 07.02.2027 -
Urho Nissilä Puskas Akademia Actif 118 / 107 40% 1 07.02.2027 -
João Nunes Ujpest Actif 103 / 101 40% 1 06.02.2027 -
Kristijan Bistrović Akron Actif 119 / 113 40% 1 06.02.2027 -
Iker Pozo Rodina Actif 121 / 114 40% 1 04.02.2027 -
Federico Baschirotto Cremonese Actif 142 / 137 40% 1 04.02.2027 -
Laros Duarte Puskas Akademia Actif 118 / 117 40% 1 04.02.2027 -
Chinedu Geoffrey Krylya Sovetov Perdu 126 / 116 40% 1 31.12.2026 -
Florent Hadergjonaj Ferencvaros Actif 114 / 122 40% 1 31.08.2026 -
Lucas Arce Godoy Cruz Actif 120 / 128 40% 1 31.08.2026 -
Stanislav Lobotka Napoli Actif 157 / 160 40% 1 01.08.2026 -
Ross McCrorie Bristol City Actif 130 / 118 40% 1 01.08.2026 -